Time;durP1;ratioP1;P1;durP2;ratioP2;P2;SDS_P1;SDS_P2;PMS_P1;PMS_P2;Temp;Humidity;BMP_temperature;BMP_pressure;BME280_temperature;BME280_humidity;BME280_pressure;Samples;Min_cycle;Max_cycle;Signal;HPM_P1;HPM_P2
2022/04/13 00:25:20;;;;;;;10.83;9.83;;;9.00;99.90;;;;;;6256066;28;20238;-57
2022/04/13 00:28:23;;;;;;;10.80;9.90;;;9.00;99.90;;;;;;6253505;28;20272;-55
2022/04/13 00:31:26;;;;;;;11.67;10.47;;;8.90;99.90;;;;;;6261817;28;20336;-55
2022/04/13 00:34:29;;;;;;;14.53;9.87;;;8.90;99.90;;;;;;6253636;28;20243;-56
2022/04/13 00:37:32;;;;;;;11.30;10.17;;;8.90;99.90;;;;;;6249407;28;20238;-55
2022/04/13 00:40:40;;;;;;;10.93;9.93;;;8.90;99.90;;;;;;6251947;28;20531;-56
2022/04/13 00:43:43;;;;;;;10.87;9.83;;;8.90;99.90;;;;;;6251396;28;20305;-56
2022/04/13 00:46:45;;;;;;;10.70;9.57;;;8.90;99.90;;;;;;6237371;28;20696;-56
2022/04/13 00:49:48;;;;;;;11.63;10.20;;;8.90;99.90;;;;;;6253710;28;20490;-54
2022/04/13 00:52:53;;;;;;;11.23;10.10;;;8.80;99.90;;;;;;6251635;28;20436;-57
2022/04/13 00:55:59;;;;;;;12.30;10.20;;;8.80;99.90;;;;;;6251677;28;20238;-55
2022/04/13 00:59:05;;;;;;;10.37;9.43;;;8.80;99.90;;;;;;6276141;28;20325;-57
2022/04/13 01:02:09;;;;;;;12.10;10.27;;;8.70;99.90;;;;;;6283780;28;20833;-56
2022/04/13 01:05:13;;;;;;;12.10;9.90;;;8.70;99.90;;;;;;6275092;28;20233;-56
2022/04/13 01:08:17;;;;;;;15.83;10.00;;;8.70;99.90;;;;;;6291191;28;20374;-56
2022/04/13 01:11:22;;;;;;;10.90;9.90;;;8.70;99.90;;;;;;6281823;28;20377;-56
2022/04/13 01:14:25;;;;;;;11.30;10.13;;;8.60;99.90;;;;;;6282568;28;20690;-56
2022/04/13 01:17:29;;;;;;;11.00;10.00;;;8.60;99.90;;;;;;6277721;28;20242;-56
2022/04/13 01:20:31;;;;;;;12.20;10.10;;;8.50;99.90;;;;;;6278323;28;20636;-55
2022/04/13 01:23:35;;;;;;;11.70;10.60;;;8.50;99.90;;;;;;6277874;28;20371;-56
2022/04/13 01:26:38;;;;;;;16.40;10.77;;;8.50;99.90;;;;;;6267877;28;20384;-56
2022/04/13 01:29:41;;;;;;;13.57;10.33;;;8.50;99.90;;;;;;6279186;28;20554;-57
2022/04/13 01:32:44;;;;;;;11.43;9.60;;;8.50;99.90;;;;;;6281719;28;20229;-57
2022/04/13 01:35:47;;;;;;;10.77;9.67;;;8.40;99.90;;;;;;6271050;28;20237;-55
2022/04/13 01:38:51;;;;;;;11.53;10.43;;;8.40;99.90;;;;;;6287257;28;20239;-56
2022/04/13 01:41:53;;;;;;;13.43;11.33;;;8.40;99.90;;;;;;6272651;28;20674;-55
2022/04/13 01:44:56;;;;;;;12.53;10.60;;;8.30;99.90;;;;;;6272611;28;20311;-54
2022/04/13 01:47:59;;;;;;;12.43;10.83;;;8.30;99.90;;;;;;6263986;28;20237;-55
2022/04/13 01:51:01;;;;;;;11.30;10.20;;;8.30;99.90;;;;;;6270568;28;20690;-56
2022/04/13 01:54:05;;;;;;;11.07;10.07;;;8.20;99.90;;;;;;6280298;28;20742;-69
2022/04/13 01:57:08;;;;;;;11.23;10.27;;;8.20;99.90;;;;;;6274679;28;20366;-62
2022/04/13 02:00:12;;;;;;;11.77;10.40;;;8.20;99.90;;;;;;6282641;28;20236;-56
2022/04/13 02:03:15;;;;;;;14.23;10.00;;;8.20;99.90;;;;;;6270123;28;20403;-57
2022/04/13 02:06:19;;;;;;;11.70;10.70;;;8.20;99.90;;;;;;6278693;28;20374;-54
2022/04/13 02:09:23;;;;;;;11.47;10.37;;;8.10;99.90;;;;;;6281364;28;20642;-55
2022/04/13 02:12:26;;;;;;;11.23;10.07;;;8.10;99.90;;;;;;6285725;28;20768;-55
2022/04/13 02:15:29;;;;;;;13.00;10.73;;;8.10;99.90;;;;;;6277660;28;20294;-57
2022/04/13 02:18:32;;;;;;;13.27;11.07;;;8.10;99.90;;;;;;6280053;28;20317;-54
2022/04/13 02:21:35;;;;;;;11.33;10.23;;;8.10;99.90;;;;;;6275125;28;20230;-56
2022/04/13 02:24:39;;;;;;;11.13;10.03;;;8.10;99.90;;;;;;6280852;28;20710;-57
2022/04/13 02:27:42;;;;;;;10.90;9.67;;;8.00;99.90;;;;;;6280080;28;20229;-55
2022/04/13 02:30:45;;;;;;;11.07;10.17;;;8.00;99.90;;;;;;6281113;28;20768;-56
2022/04/13 02:33:51;;;;;;;11.73;10.60;;;8.00;99.90;;;;;;6277273;28;20602;-56
2022/04/13 02:36:54;;;;;;;12.70;10.43;;;7.90;99.90;;;;;;6272375;28;20234;-56
2022/04/13 02:39:57;;;;;;;11.40;10.37;;;7.90;99.90;;;;;;6279521;28;20798;-56
2022/04/13 02:43:00;;;;;;;11.07;9.97;;;7.80;99.90;;;;;;6275289;28;20225;-57
2022/04/13 02:46:04;;;;;;;12.20;10.60;;;7.80;99.90;;;;;;6270291;28;20460;-55
2022/04/13 02:49:07;;;;;;;14.33;11.00;;;7.80;99.90;;;;;;6268953;28;20709;-55
2022/04/13 02:52:09;;;;;;;10.63;9.73;;;7.70;99.90;;;;;;6283163;28;20317;-56
2022/04/13 02:55:13;;;;;;;11.43;10.33;;;7.80;99.90;;;;;;6273513;28;20311;-57
2022/04/13 02:58:16;;;;;;;12.27;10.03;;;7.70;99.90;;;;;;6279951;28;20253;-57
2022/04/13 03:01:19;;;;;;;11.27;10.20;;;7.70;99.90;;;;;;6282878;28;20359;-55
2022/04/13 03:04:21;;;;;;;11.40;10.27;;;7.70;99.90;;;;;;6274396;28;20847;-54
2022/04/13 03:07:28;;;;;;;11.53;10.43;;;7.60;99.90;;;;;;6274645;28;20706;-56
2022/04/13 03:10:32;;;;;;;11.43;10.17;;;7.60;99.90;;;;;;6276084;28;20730;-55
2022/04/13 03:13:35;;;;;;;10.40;9.60;;;7.60;99.90;;;;;;6269702;28;20676;-56
2022/04/13 03:16:38;;;;;;;11.60;10.40;;;7.50;99.90;;;;;;6273256;28;20257;-56
2022/04/13 03:19:40;;;;;;;12.90;11.40;;;7.70;99.90;;;;;;6274513;28;20232;-56
2022/04/13 03:22:43;;;;;;;11.67;10.63;;;7.50;99.90;;;;;;6272808;28;20648;-56
2022/04/13 03:25:48;;;;;;;12.97;11.70;;;7.50;99.90;;;;;;6276679;28;20379;-55
2022/04/13 03:28:51;;;;;;;13.40;11.80;;;7.50;99.90;;;;;;6278255;28;20313;-56
2022/04/13 03:31:54;;;;;;;13.40;10.57;;;7.50;99.90;;;;;;6263178;28;20395;-56
2022/04/13 03:34:56;;;;;;;12.40;11.00;;;7.50;99.90;;;;;;6292997;28;20733;-56
2022/04/13 03:37:59;;;;;;;11.93;10.80;;;7.40;99.90;;;;;;6284884;28;20358;-57
2022/04/13 03:41:04;;;;;;;12.43;11.00;;;7.40;99.90;;;;;;6289749;28;20554;-56
2022/04/13 03:44:07;;;;;;;11.57;10.47;;;7.30;99.90;;;;;;6295099;28;20566;-56
2022/04/13 03:47:10;;;;;;;14.00;11.80;;;7.60;99.90;;;;;;6299103;28;20244;-56
2022/04/13 03:50:13;;;;;;;11.53;10.43;;;7.40;99.90;;;;;;6285582;28;20252;-55
2022/04/13 03:53:16;;;;;;;12.63;11.43;;;7.40;99.90;;;;;;6291754;28;20287;-56
2022/04/13 03:56:20;;;;;;;14.77;11.10;;;7.30;99.90;;;;;;6297207;28;20244;-57
2022/04/13 03:59:23;;;;;;;12.57;10.70;;;7.30;99.90;;;;;;6287010;28;20749;-57
2022/04/13 04:02:26;;;;;;;12.30;10.93;;;7.30;99.90;;;;;;6300864;28;20243;-57
2022/04/13 04:05:29;;;;;;;11.87;10.67;;;7.40;99.90;;;;;;6291922;28;20342;-55
2022/04/13 04:08:32;;;;;;;13.43;12.13;;;7.20;99.90;;;;;;6283721;28;20237;-57
2022/04/13 04:11:36;;;;;;;12.47;11.03;;;7.20;99.90;;;;;;6286447;28;20233;-55
2022/04/13 04:14:39;;;;;;;12.93;11.37;;;7.10;99.90;;;;;;6293317;28;20505;-57
2022/04/13 04:17:41;;;;;;;13.00;11.70;;;7.10;99.90;;;;;;6289986;28;20829;-56
2022/04/13 04:20:44;;;;;;;17.30;11.33;;;7.10;99.90;;;;;;6295115;28;20237;-56
2022/04/13 04:23:47;;;;;;;11.37;10.27;;;7.00;99.90;;;;;;6284835;28;20237;-56
2022/04/13 04:26:51;;;;;;;12.30;11.13;;;7.30;99.90;;;;;;6284714;28;20778;-56
2022/04/13 04:30:01;;;;;;;14.57;11.70;;;7.10;99.90;;;;;;6294479;28;20247;-55
2022/04/13 04:33:03;;;;;;;12.30;11.10;;;7.00;99.90;;;;;;6297383;28;20709;-55
2022/04/13 04:36:06;;;;;;;15.27;11.37;;;7.30;99.90;;;;;;6280475;28;20949;-57
2022/04/13 04:39:09;;;;;;;12.20;11.03;;;7.10;99.90;;;;;;6286085;28;20320;-55
2022/04/13 04:42:13;;;;;;;14.50;11.23;;;7.10;99.90;;;;;;6295180;28;20320;-57
2022/04/13 04:45:19;;;;;;;13.20;11.87;;;7.10;99.90;;;;;;6286731;28;20240;-56
2022/04/13 04:48:22;;;;;;;12.70;11.07;;;7.10;99.90;;;;;;6276868;28;20234;-57
2022/04/13 04:51:25;;;;;;;12.43;11.23;;;7.10;99.90;;;;;;6282709;28;20981;-55
2022/04/13 04:54:27;;;;;;;13.43;11.00;;;7.30;99.90;;;;;;6290118;28;20379;-56
2022/04/13 04:57:35;;;;;;;14.33;11.13;;;7.20;99.90;;;;;;6288262;28;20241;-55
2022/04/13 05:00:39;;;;;;;11.80;10.63;;;7.30;99.90;;;;;;6278402;28;20312;-55
2022/04/13 05:03:43;;;;;;;16.57;11.43;;;7.30;99.90;;;;;;6287300;28;20232;-56
2022/04/13 05:06:46;;;;;;;14.43;11.30;;;7.50;99.90;;;;;;6293010;28;20248;-56
2022/04/13 05:09:48;;;;;;;12.93;11.53;;;7.40;99.90;;;;;;6293299;28;20265;-56
2022/04/13 05:12:56;;;;;;;13.07;10.87;;;6.90;99.90;;;;;;6284166;28;20233;-55
2022/04/13 05:16:00;;;;;;;12.63;11.20;;;7.50;99.90;;;;;;6288951;28;20237;-55
2022/04/13 05:19:03;;;;;;;14.80;11.50;;;7.50;99.90;;;;;;6287544;28;20252;-56
2022/04/13 05:22:06;;;;;;;14.80;12.07;;;7.60;99.90;;;;;;6283643;28;20306;-56
2022/04/13 05:25:10;;;;;;;14.87;11.67;;;7.70;99.90;;;;;;6289649;28;20316;-54
2022/04/13 05:28:15;;;;;;;15.83;11.43;;;7.60;99.90;;;;;;6287170;28;20610;-55
2022/04/13 05:31:17;;;;;;;17.87;11.27;;;7.70;99.90;;;;;;6287109;28;20241;-57
2022/04/13 05:34:20;;;;;;;13.60;11.70;;;7.70;99.90;;;;;;6291517;28;20375;-57
2022/04/13 05:37:23;;;;;;;13.43;11.67;;;7.80;99.90;;;;;;6283208;28;20545;-56
2022/04/13 05:40:26;;;;;;;15.70;12.03;;;7.90;99.90;;;;;;6286595;28;20323;-57
2022/04/13 05:43:33;;;;;;;14.87;11.83;;;8.00;99.90;;;;;;6290119;28;20250;-58
2022/04/13 05:46:35;;;;;;;13.57;11.27;;;8.10;99.90;;;;;;6281762;28;20872;-55
2022/04/13 05:49:38;;;;;;;17.10;12.00;;;8.20;99.90;;;;;;6277625;28;20336;-55
2022/04/13 05:52:42;;;;;;;15.43;10.50;;;8.30;99.90;;;;;;6289747;28;20478;-55
2022/04/13 05:55:45;;;;;;;13.27;11.40;;;8.40;99.90;;;;;;6290958;28;20244;-56
2022/04/13 05:58:49;;;;;;;12.90;11.43;;;8.40;99.90;;;;;;6283105;28;20640;-56
2022/04/13 06:01:51;;;;;;;12.17;10.67;;;8.60;99.90;;;;;;6290539;28;20233;-56
2022/04/13 06:04:54;;;;;;;14.20;11.20;;;8.70;99.90;;;;;;6282239;28;20322;-57
2022/04/13 06:07:57;;;;;;;18.87;11.73;;;8.90;99.90;;;;;;6283056;28;20269;-55
2022/04/13 06:11:00;;;;;;;14.73;11.47;;;9.10;99.90;;;;;;6283303;28;20240;-56
2022/04/13 06:14:04;;;;;;;16.73;11.73;;;9.30;99.90;;;;;;6280360;28;20248;-57
2022/04/13 06:17:07;;;;;;;14.83;11.60;;;9.50;99.90;;;;;;6279615;28;20369;-56
2022/04/13 06:20:11;;;;;;;13.80;12.03;;;9.50;99.90;;;;;;6285671;28;20371;-57
2022/04/13 06:23:13;;;;;;;12.97;11.67;;;9.80;99.90;;;;;;6264333;28;20259;-55
2022/04/13 06:26:17;;;;;;;13.93;11.23;;;10.00;99.90;;;;;;6270346;28;20414;-55
2022/04/13 06:29:21;;;;;;;16.27;12.07;;;10.30;99.90;;;;;;6270760;28;20310;-56
2022/04/13 06:32:32;;;;;;;13.30;11.97;;;10.60;99.90;;;;;;6265711;28;20367;-56
2022/04/13 06:35:35;;;;;;;15.17;11.43;;;10.90;99.90;;;;;;6268423;28;20602;-56
2022/04/13 06:38:40;;;;;;;12.63;11.33;;;10.80;99.90;;;;;;6279900;28;20229;-55
2022/04/13 06:41:43;;;;;;;13.77;11.03;;;11.00;99.90;;;;;;6257239;28;20274;-56
2022/04/13 06:44:47;;;;;;;13.67;11.27;;;11.20;99.90;;;;;;6262164;28;20257;-56
2022/04/13 06:47:50;;;;;;;16.87;11.30;;;11.30;99.90;;;;;;6267020;28;20784;-55
2022/04/13 06:50:53;;;;;;;13.53;10.77;;;11.40;99.90;;;;;;6265632;28;20721;-55
2022/04/13 06:53:55;;;;;;;14.03;11.03;;;11.40;99.90;;;;;;6253344;28;20303;-56
2022/04/13 06:56:58;;;;;;;19.60;11.23;;;11.50;99.90;;;;;;6258271;28;20241;-56
2022/04/13 07:00:02;;;;;;;11.87;10.70;;;11.70;99.90;;;;;;6268773;28;20801;-57
2022/04/13 07:03:05;;;;;;;15.90;11.33;;;11.70;99.90;;;;;;6261132;28;20343;-55
2022/04/13 07:06:15;;;;;;;13.10;11.00;;;11.60;99.90;;;;;;6262895;28;20355;-55
2022/04/13 07:09:38;;;;;;;13.03;11.37;;;11.60;99.90;;;;;;6262135;28;20464;-56
2022/04/13 07:12:40;;;;;;;17.23;10.87;;;11.60;99.90;;;;;;6264266;28;20657;-56
2022/04/13 07:15:45;;;;;;;13.07;10.77;;;11.80;99.90;;;;;;6265198;28;20249;-56
2022/04/13 07:18:47;;;;;;;12.37;11.03;;;11.90;99.90;;;;;;6254666;28;20237;-56
2022/04/13 07:21:50;;;;;;;11.57;10.40;;;12.20;99.90;;;;;;6257632;28;20348;-55
2022/04/13 07:25:01;;;;;;;12.40;10.33;;;12.20;99.90;;;;;;6265956;28;20226;-55
2022/04/13 07:28:04;;;;;;;14.47;11.30;;;12.30;99.90;;;;;;6255404;28;20729;-57
2022/04/13 07:31:08;;;;;;;12.60;10.80;;;12.50;99.90;;;;;;6263237;28;20225;-57
2022/04/13 07:34:11;;;;;;;13.07;10.63;;;12.70;99.90;;;;;;6255697;28;20287;-54
2022/04/13 07:37:13;;;;;;;11.30;10.10;;;12.90;99.90;;;;;;6255160;28;20311;-56
2022/04/13 07:40:17;;;;;;;12.90;10.30;;;12.80;99.90;;;;;;6250970;28;20313;-56
2022/04/13 07:43:20;;;;;;;13.10;10.80;;;12.80;99.90;;;;;;6260019;28;20742;-55
2022/04/13 07:46:27;;;;;;;13.57;10.47;;;12.90;99.90;;;;;;6262525;28;20657;-55
2022/04/13 07:49:31;;;;;;;11.50;9.60;;;13.10;99.90;;;;;;6260373;28;20730;-57
2022/04/13 07:52:34;;;;;;;11.73;10.10;;;13.30;99.90;;;;;;6250586;28;20370;-55
2022/04/13 07:55:37;;;;;;;16.43;10.40;;;13.50;99.90;;;;;;6269207;28;20297;-56
2022/04/13 07:58:40;;;;;;;15.73;10.77;;;13.70;99.90;;;;;;6258856;28;20734;-56
2022/04/13 08:01:44;;;;;;;12.37;10.20;;;13.80;99.90;;;;;;6272965;28;20229;-57
2022/04/13 08:04:47;;;;;;;15.90;10.20;;;13.60;99.90;;;;;;6255706;28;20262;-56
2022/04/13 08:07:50;;;;;;;14.67;10.67;;;14.10;99.90;;;;;;6260403;28;20230;-57
2022/04/13 08:10:52;;;;;;;18.43;10.23;;;14.10;99.90;;;;;;6262301;28;20261;-56
2022/04/13 08:13:55;;;;;;;10.70;9.57;;;14.30;99.90;;;;;;6253602;28;20233;-56
2022/04/13 08:17:03;;;;;;;12.37;10.93;;;14.50;99.90;;;;;;6262466;28;20650;-56
2022/04/13 08:20:08;;;;;;;12.60;10.47;;;14.60;99.90;;;;;;6270665;28;20271;-56
2022/04/13 08:23:10;;;;;;;13.27;10.63;;;14.80;99.90;;;;;;6259687;28;20305;-55
2022/04/13 08:26:13;;;;;;;13.43;10.43;;;14.90;99.90;;;;;;6269743;28;20784;-57
2022/04/13 08:29:16;;;;;;;11.17;10.07;;;14.90;99.90;;;;;;6263483;28;20322;-57
2022/04/13 08:32:21;;;;;;;12.57;10.33;;;15.00;99.90;;;;;;6265298;28;20428;-58
2022/04/13 08:35:24;;;;;;;12.63;10.27;;;15.10;99.90;;;;;;6261637;28;20308;-56
2022/04/13 08:38:27;;;;;;;14.43;10.80;;;15.20;99.90;;;;;;6259988;28;20617;-56
2022/04/13 08:41:40;;;;;;;14.47;10.00;;;15.30;99.90;;;;;;6262286;28;20238;-55
2022/04/13 08:44:51;;;;;;;13.00;10.50;;;15.50;99.90;;;;;;6256418;28;20344;-57
2022/04/13 08:47:59;;;;;;;14.40;10.17;;;15.60;99.90;;;;;;6278494;28;20713;-56
2022/04/13 08:51:04;;;;;;;15.50;10.83;;;15.70;99.90;;;;;;6256998;28;20364;-56
2022/04/13 08:54:14;;;;;;;11.47;10.33;;;15.80;99.90;;;;;;6257137;28;20327;-57
2022/04/13 08:57:22;;;;;;;11.23;10.13;;;15.80;99.90;;;;;;6263498;28;20306;-57
2022/04/13 09:00:28;;;;;;;11.67;10.23;;;15.80;99.90;;;;;;6263863;28;20276;-57
2022/04/13 09:03:40;;;;;;;12.37;10.33;;;15.80;99.90;;;;;;6263794;28;20234;-56
2022/04/13 09:06:44;;;;;;;16.17;10.80;;;15.90;99.90;;;;;;6270519;28;20233;-56
2022/04/13 09:09:50;;;;;;;13.17;10.63;;;16.00;99.90;;;;;;6266823;28;20475;-55
2022/04/13 09:12:53;;;;;;;16.10;10.50;;;15.90;99.90;;;;;;6266149;28;20281;-56
2022/04/13 09:15:58;;;;;;;13.87;10.40;;;16.00;99.90;;;;;;6264683;28;20826;-57
2022/04/13 09:19:03;;;;;;;14.97;9.83;;;16.00;99.90;;;;;;6271728;28;20226;-56
2022/04/13 09:22:06;;;;;;;15.00;10.40;;;16.30;99.90;;;;;;6264109;28;20233;-57
2022/04/13 09:25:10;;;;;;;12.47;10.07;;;16.50;99.90;;;;;;6259784;28;20740;-56
2022/04/13 09:28:13;;;;;;;10.37;9.27;;;16.70;99.90;;;;;;6255567;28;20338;-56
2022/04/13 09:31:15;;;;;;;12.20;10.20;;;16.80;99.90;;;;;;6262560;28;20244;-57
2022/04/13 09:34:20;;;;;;;12.13;10.17;;;17.00;99.90;;;;;;6260502;28;20274;-56
2022/04/13 09:37:23;;;;;;;14.53;10.70;;;17.00;99.90;;;;;;6256388;28;20330;-56
2022/04/13 09:40:28;;;;;;;12.83;10.43;;;17.10;99.90;;;;;;6257860;28;20691;-56
2022/04/13 09:43:30;;;;;;;15.50;10.23;;;17.20;99.90;;;;;;6280957;28;20226;-56
2022/04/13 09:46:33;;;;;;;11.60;9.73;;;17.20;99.90;;;;;;6258918;28;20248;-56
2022/04/13 09:49:45;;;;;;;11.50;9.27;;;17.20;99.90;;;;;;6254036;28;20238;-56
2022/04/13 09:52:55;;;;;;;16.57;10.43;;;17.30;99.90;;;;;;6258890;28;20475;-57
2022/04/13 09:55:59;;;;;;;11.70;9.83;;;17.40;99.90;;;;;;6269736;28;20234;-56
2022/04/13 09:59:04;;;;;;;12.20;10.37;;;17.40;99.90;;;;;;6256749;28;20245;-57
2022/04/13 10:02:07;;;;;;;14.53;10.27;;;17.50;99.90;;;;;;6262225;28;20234;-56
2022/04/13 10:05:22;;;;;;;11.93;10.67;;;17.50;99.90;;;;;;6265653;28;20249;-56
2022/04/13 10:08:26;;;;;;;11.47;9.07;;;17.60;99.90;;;;;;6257564;28;20238;-56
2022/04/13 10:11:29;;;;;;;13.07;10.07;;;17.70;99.90;;;;;;6260124;28;20241;-57
2022/04/13 10:14:32;;;;;;;10.87;9.87;;;17.90;99.90;;;;;;6263824;28;20229;-57
2022/04/13 10:17:35;;;;;;;15.80;10.50;;;18.00;99.90;;;;;;6259769;28;20240;-56
2022/04/13 10:20:48;;;;;;;13.90;10.30;;;18.00;99.90;;;;;;6259958;28;20275;-58
2022/04/13 10:23:51;;;;;;;14.07;10.07;;;18.10;99.90;;;;;;6259847;28;20233;-56
2022/04/13 10:27:01;;;;;;;15.00;9.90;;;18.20;99.90;;;;;;6258522;28;20369;-57
2022/04/13 10:30:07;;;;;;;13.07;10.20;;;18.40;99.90;;;;;;6280124;28;20752;-55
2022/04/13 10:33:12;;;;;;;11.10;9.90;;;18.60;99.90;;;;;;6279728;28;20320;-58
2022/04/13 10:36:17;;;;;;;10.37;9.37;;;18.60;99.90;;;;;;6284760;28;20237;-57
2022/04/13 10:39:19;;;;;;;13.77;10.10;;;18.60;99.90;;;;;;6280788;28;20611;-56
2022/04/13 10:42:22;;;;;;;18.17;10.97;;;18.60;99.90;;;;;;6280691;28;20367;-56
2022/04/13 10:45:27;;;;;;;10.13;9.13;;;18.60;99.90;;;;;;6287566;28;20334;-62
2022/04/13 10:48:32;;;;;;;10.90;9.50;;;18.60;99.90;;;;;;6276592;28;20314;-57
2022/04/13 10:51:39;;;;;;;12.90;9.20;;;18.70;99.90;;;;;;6285873;28;20343;-57
2022/04/13 10:54:47;;;;;;;13.17;10.17;;;18.90;99.90;;;;;;6283835;28;20302;-57
2022/04/13 10:57:53;;;;;;;10.60;9.60;;;19.10;99.90;;;;;;6280997;28;20396;-56
2022/04/13 11:01:04;;;;;;;11.80;8.83;;;19.10;99.90;;;;;;6277634;28;20229;-55
2022/04/13 11:04:08;;;;;;;10.70;9.50;;;19.40;99.90;;;;;;6282415;28;20442;-57
2022/04/13 11:07:12;;;;;;;10.90;9.80;;;19.60;99.90;;;;;;6277747;28;20264;-56
2022/04/13 11:10:18;;;;;;;9.87;8.87;;;19.80;99.90;;;;;;6280578;28;20260;-57
2022/04/13 11:13:21;;;;;;;10.90;9.10;;;19.80;99.90;;;;;;6287272;28;20860;-58
2022/04/13 11:16:25;;;;;;;12.90;9.50;;;19.90;99.90;;;;;;6286990;28;20273;-56
2022/04/13 11:19:28;;;;;;;10.63;8.73;;;20.00;99.90;;;;;;6281176;28;20885;-57
2022/04/13 11:22:35;;;;;;;10.17;9.13;;;20.10;99.90;;;;;;6283024;28;20330;-57
2022/04/13 11:25:48;;;;;;;10.13;8.90;;;20.10;99.90;;;;;;6285779;28;20710;-56
2022/04/13 11:29:17;;;;;;;9.87;8.93;;;20.20;99.90;;;;;;6277191;28;20288;-58
2022/04/13 11:32:25;;;;;;;12.67;9.87;;;20.30;99.90;;;;;;6287321;28;20317;-56
2022/04/13 11:35:28;;;;;;;9.63;8.70;;;20.40;99.90;;;;;;6280433;28;20327;-57
2022/04/13 11:38:36;;;;;;;9.67;8.63;;;20.50;99.90;;;;;;6285982;28;20900;-56
2022/04/13 11:41:51;;;;;;;11.63;9.03;;;20.60;99.90;;;;;;6275840;28;20733;-57
2022/04/13 11:45:02;;;;;;;9.70;8.73;;;20.80;99.90;;;;;;6281228;28;20241;-54
2022/04/13 11:48:05;;;;;;;11.23;8.63;;;20.80;99.90;;;;;;6285056;28;20226;-55
2022/04/13 11:51:29;;;;;;;9.03;7.80;;;20.80;99.90;;;;;;6285114;28;20230;-57
2022/04/13 11:54:47;;;;;;;15.00;8.77;;;20.90;99.90;;;;;;6263160;28;22216;-55
2022/04/13 11:58:19;;;;;;;9.07;7.90;;;21.00;99.90;;;;;;6273695;28;20794;-58
2022/04/13 12:01:23;;;;;;;9.20;8.37;;;21.20;99.90;;;;;;6265874;28;20395;-56
2022/04/13 12:04:31;;;;;;;10.70;8.20;;;21.30;99.90;;;;;;6263588;28;20325;-56
2022/04/13 12:07:35;;;;;;;9.80;8.40;;;21.20;99.90;;;;;;6262471;28;20320;-57
2022/04/13 12:10:44;;;;;;;8.77;7.87;;;21.20;99.90;;;;;;6263979;28;20726;-57
2022/04/13 12:13:49;;;;;;;8.10;7.33;;;21.20;99.90;;;;;;6260420;28;20650;-57
2022/04/13 12:16:52;;;;;;;10.50;8.37;;;21.30;99.90;;;;;;6267435;28;20533;-57
2022/04/13 12:19:55;;;;;;;8.77;7.57;;;21.40;99.90;;;;;;6258523;28;20797;-57
2022/04/13 12:22:58;;;;;;;7.70;6.70;;;21.60;99.90;;;;;;6263685;28;20276;-57
2022/04/13 12:26:03;;;;;;;8.20;7.27;;;21.60;99.90;;;;;;6267764;28;20226;-58
2022/04/13 12:29:12;;;;;;;7.83;7.03;;;21.70;99.90;;;;;;6257692;28;20321;-56
2022/04/13 12:32:19;;;;;;;9.63;7.63;;;21.80;99.90;;;;;;6261117;28;20230;-58
2022/04/13 12:35:21;;;;;;;10.77;7.80;;;21.90;99.90;;;;;;6266594;28;20379;-56
2022/04/13 12:38:30;;;;;;;8.00;7.40;;;22.00;99.90;;;;;;6263184;28;20360;-57
2022/04/13 12:41:34;;;;;;;8.17;7.10;;;21.90;99.90;;;;;;6273040;28;20329;-54
2022/04/13 12:44:46;;;;;;;7.87;7.17;;;21.90;99.90;;;;;;6283225;28;20267;-56
2022/04/13 12:47:49;;;;;;;7.67;6.93;;;21.90;99.90;;;;;;6282992;28;20312;-55
2022/04/13 12:50:56;;;;;;;7.80;7.20;;;21.90;99.90;;;;;;6286068;28;20314;-56
2022/04/13 12:54:00;;;;;;;7.33;6.70;;;22.00;99.90;;;;;;6279596;28;20539;-57
2022/04/13 12:57:05;;;;;;;8.00;7.30;;;22.00;99.90;;;;;;6285973;28;20271;-56
2022/04/13 13:00:34;;;;;;;7.17;6.47;;;22.00;99.90;;;;;;6281834;28;20733;-56
2022/04/13 13:03:40;;;;;;;6.93;6.43;;;22.00;99.90;;;;;;6282416;28;20250;-58
2022/04/13 13:06:58;;;;;;;6.70;6.10;;;22.10;99.90;;;;;;6292278;28;20331;-57
2022/04/13 13:10:01;;;;;;;6.80;6.27;;;22.30;99.90;;;;;;6289197;28;20316;-56
2022/04/13 13:13:11;;;;;;;7.93;7.37;;;22.40;99.90;;;;;;6288077;28;20236;-56
2022/04/13 13:16:30;;;;;;;8.10;7.30;;;22.40;99.90;;;;;;6285714;28;20287;-56
2022/04/13 13:19:35;;;;;;;8.10;7.30;;;22.50;99.90;;;;;;6284989;28;20339;-55
2022/04/13 13:22:46;;;;;;;7.37;6.77;;;22.40;99.90;;;;;;6284662;28;20264;-56
2022/04/13 13:25:48;;;;;;;8.53;7.27;;;22.40;99.90;;;;;;6291647;28;20321;-56
2022/04/13 13:28:51;;;;;;;7.23;6.60;;;22.40;99.90;;;;;;6281222;28;20293;-58
2022/04/13 13:31:54;;;;;;;8.07;6.87;;;22.30;99.90;;;;;;6286665;28;20391;-56
2022/04/13 13:35:00;;;;;;;9.63;7.27;;;22.40;99.90;;;;;;6281299;28;20241;-57
2022/04/13 13:38:08;;;;;;;7.77;6.90;;;22.40;99.90;;;;;;6286248;28;20319;-56
2022/04/13 13:41:11;;;;;;;9.93;7.17;;;22.20;99.90;;;;;;6288691;28;20336;-57
2022/04/13 13:44:23;;;;;;;7.60;6.53;;;22.00;99.90;;;;;;6286324;28;20335;-57
2022/04/13 13:47:27;;;;;;;6.83;6.33;;;22.00;99.90;;;;;;6283642;28;20371;-59
2022/04/13 13:50:34;;;;;;;7.53;6.90;;;22.00;99.90;;;;;;6285424;28;20363;-57
2022/04/13 13:53:36;;;;;;;7.40;6.73;;;22.10;99.90;;;;;;6288959;28;20228;-56
2022/04/13 13:56:39;;;;;;;7.07;6.47;;;22.20;99.90;;;;;;6288708;28;20382;-56
2022/04/13 13:59:42;;;;;;;8.57;6.93;;;22.20;99.90;;;;;;6293294;28;20685;-57
2022/04/13 14:02:52;;;;;;;8.27;6.70;;;22.00;99.90;;;;;;6276406;28;20233;-57
2022/04/13 14:05:57;;;;;;;8.23;6.60;;;22.20;99.90;;;;;;6290616;28;20249;-57
2022/04/13 14:08:59;;;;;;;7.13;5.83;;;22.30;99.90;;;;;;6288889;28;20312;-57
2022/04/13 14:12:02;;;;;;;6.57;5.93;;;22.30;99.90;;;;;;6286410;28;20326;-56
2022/04/13 14:15:06;;;;;;;6.30;5.80;;;22.30;99.90;;;;;;6288897;28;20382;-56
2022/04/13 14:18:09;;;;;;;6.43;5.90;;;22.40;99.90;;;;;;6286992;28;20237;-56
2022/04/13 14:21:14;;;;;;;5.17;4.97;;;22.40;99.90;;;;;;6279130;28;20238;-54
2022/04/13 14:24:16;;;;;;;5.73;5.07;;;22.40;99.90;;;;;;6279981;28;20270;-56
2022/04/13 14:27:19;;;;;;;5.53;5.10;;;22.30;99.90;;;;;;6289474;28;20371;-58
2022/04/13 14:30:23;;;;;;;5.53;5.07;;;22.40;99.90;;;;;;6290549;28;20240;-57
2022/04/13 14:33:26;;;;;;;5.43;4.97;;;22.50;99.90;;;;;;6285414;28;20366;-55
2022/04/13 14:36:30;;;;;;;5.87;4.50;;;22.60;99.90;;;;;;6277833;28;20337;-57
2022/04/13 14:39:33;;;;;;;5.07;4.77;;;22.60;99.90;;;;;;6273980;28;20340;-57
2022/04/13 14:42:36;;;;;;;5.60;4.57;;;22.60;99.90;;;;;;6282054;28;20293;-56
2022/04/13 14:45:39;;;;;;;7.13;5.57;;;22.60;99.90;;;;;;6282960;28;20402;-56
2022/04/13 14:48:42;;;;;;;6.83;5.10;;;22.60;99.90;;;;;;6271427;28;20311;-57
2022/04/13 14:51:46;;;;;;;11.07;7.07;;;22.60;99.90;;;;;;6282540;28;20817;-56
2022/04/13 14:54:49;;;;;;;6.03;5.63;;;22.40;99.90;;;;;;6287927;28;20280;-57
2022/04/13 14:57:57;;;;;;;4.97;4.60;;;22.40;99.90;;;;;;6281722;28;20642;-55
2022/04/13 15:01:02;;;;;;;6.33;5.93;;;22.40;99.90;;;;;;6284180;28;20324;-56
2022/04/13 15:04:06;;;;;;;7.73;6.93;;;22.40;99.90;;;;;;6280163;28;20259;-57
2022/04/13 15:07:10;;;;;;;6.47;6.00;;;22.40;99.90;;;;;;6287106;28;20237;-56
2022/04/13 15:10:13;;;;;;;6.37;5.87;;;22.40;99.90;;;;;;6276149;28;20778;-56
2022/04/13 15:13:16;;;;;;;6.80;5.30;;;22.40;99.90;;;;;;6277623;28;20726;-56
2022/04/13 15:16:27;;;;;;;7.27;5.70;;;22.30;99.90;;;;;;6276637;28;20487;-59
2022/04/13 15:19:30;;;;;;;6.47;6.07;;;22.40;99.90;;;;;;6282225;28;20241;-55
2022/04/13 15:22:35;;;;;;;6.33;5.80;;;22.30;99.90;;;;;;6282449;28;20394;-56
2022/04/13 15:25:38;;;;;;;6.93;4.83;;;22.30;99.90;;;;;;6289803;28;20526;-55
2022/04/13 15:28:41;;;;;;;6.30;5.70;;;22.20;99.90;;;;;;6278798;28;20323;-56
2022/04/13 15:31:44;;;;;;;4.77;4.40;;;22.10;99.90;;;;;;6286859;28;20329;-57
2022/04/13 15:34:46;;;;;;;4.90;4.40;;;22.10;99.90;;;;;;6281757;28;20578;-56
2022/04/13 15:37:50;;;;;;;5.07;4.73;;;22.00;99.90;;;;;;6285039;28;20502;-57
2022/04/13 15:40:54;;;;;;;6.40;5.63;;;22.00;99.90;;;;;;6274820;28;20272;-56
2022/04/13 15:43:57;;;;;;;6.83;5.60;;;21.90;99.90;;;;;;6281925;28;20245;-56
2022/04/13 15:47:02;;;;;;;5.90;5.50;;;21.90;99.90;;;;;;6287258;28;20311;-56
2022/04/13 15:50:08;;;;;;;5.40;5.10;;;22.00;99.90;;;;;;6281825;28;20316;-56
2022/04/13 15:53:15;;;;;;;5.80;5.30;;;21.90;99.90;;;;;;6277291;28;20388;-55
2022/04/13 15:56:17;;;;;;;5.83;5.00;;;21.80;99.90;;;;;;6288149;28;20318;-55
2022/04/13 15:59:20;;;;;;;5.27;4.90;;;21.70;99.90;;;;;;6280567;28;20263;-54
2022/04/13 16:02:25;;;;;;;7.27;5.47;;;21.70;99.90;;;;;;6280647;28;20314;-55
2022/04/13 16:05:28;;;;;;;6.00;5.53;;;21.70;99.90;;;;;;6287060;28;20237;-57
2022/04/13 16:08:32;;;;;;;6.10;5.70;;;21.70;99.90;;;;;;6283982;28;20237;-55
2022/04/13 16:11:35;;;;;;;6.67;6.07;;;21.70;99.90;;;;;;6279418;28;20720;-56
2022/04/13 16:14:37;;;;;;;6.23;5.80;;;21.70;99.90;;;;;;6285469;28;20711;-56